sensor_id;sensor_type;location;lat;lon;timestamp;temperature;humidity
33093;DHT22;19456;46.104;12.908;2023-08-20T00:01:04;24.40;99.90
33093;DHT22;19456;46.104;12.908;2023-08-20T00:03:30;24.40;99.90
33093;DHT22;19456;46.104;12.908;2023-08-20T00:05:55;24.50;99.90
33093;DHT22;19456;46.104;12.908;2023-08-20T00:08:21;24.50;99.90
33093;DHT22;19456;46.104;12.908;2023-08-20T00:10:46;24.60;99.90
33093;DHT22;19456;46.104;12.908;2023-08-20T00:13:12;24.70;99.90
33093;DHT22;19456;46.104;12.908;2023-08-20T00:15:38;24.50;99.90
33093;DHT22;19456;46.104;12.908;2023-08-20T00:18:03;24.50;99.90
33093;DHT22;19456;46.104;12.908;2023-08-20T00:20:29;24.50;99.90
33093;DHT22;19456;46.104;12.908;2023-08-20T00:22:55;24.30;99.90
33093;DHT22;19456;46.104;12.908;2023-08-20T00:25:21;24.20;99.90
33093;DHT22;19456;46.104;12.908;2023-08-20T00:27:46;24.20;99.90
33093;DHT22;19456;46.104;12.908;2023-08-20T00:30:12;24.40;99.90
33093;DHT22;19456;46.104;12.908;2023-08-20T00:32:37;24.40;99.90
33093;DHT22;19456;46.104;12.908;2023-08-20T00:35:03;24.30;99.90
33093;DHT22;19456;46.104;12.908;2023-08-20T00:37:29;24.20;99.90
33093;DHT22;19456;46.104;12.908;2023-08-20T00:39:56;24.00;99.90
33093;DHT22;19456;46.104;12.908;2023-08-20T00:42:22;24.00;99.90
33093;DHT22;19456;46.104;12.908;2023-08-20T00:44:51;23.90;99.90
33093;DHT22;19456;46.104;12.908;2023-08-20T00:47:16;23.80;99.90
33093;DHT22;19456;46.104;12.908;2023-08-20T00:49:43;23.80;99.90
33093;DHT22;19456;46.104;12.908;2023-08-20T00:52:09;24.00;99.90
33093;DHT22;19456;46.104;12.908;2023-08-20T00:54:35;24.00;99.90
33093;DHT22;19456;46.104;12.908;2023-08-20T00:57:02;23.90;99.90
33093;DHT22;19456;46.104;12.908;2023-08-20T00:59:30;23.80;99.90
33093;DHT22;19456;46.104;12.908;2023-08-20T01:01:57;23.80;99.90
33093;DHT22;19456;46.104;12.908;2023-08-20T01:04:23;23.70;99.90
33093;DHT22;19456;46.104;12.908;2023-08-20T01:06:56;23.60;99.90
33093;DHT22;19456;46.104;12.908;2023-08-20T01:09:30;23.70;99.90
33093;DHT22;19456;46.104;12.908;2023-08-20T01:12:02;23.80;99.90
33093;DHT22;19456;46.104;12.908;2023-08-20T01:14:28;23.80;99.90
33093;DHT22;19456;46.104;12.908;2023-08-20T01:16:53;23.80;99.90
33093;DHT22;19456;46.104;12.908;2023-08-20T01:19:21;23.60;99.90
33093;DHT22;19456;46.104;12.908;2023-08-20T01:21:51;23.50;99.90
33093;DHT22;19456;46.104;12.908;2023-08-20T01:24:38;23.50;99.90
33093;DHT22;19456;46.104;12.908;2023-08-20T01:29:43;23.60;99.90
33093;DHT22;19456;46.104;12.908;2023-08-20T01:32:08;23.70;99.90
33093;DHT22;19456;46.104;12.908;2023-08-20T01:34:34;23.80;99.90
33093;DHT22;19456;46.104;12.908;2023-08-20T01:37:00;23.80;99.90
33093;DHT22;19456;46.104;12.908;2023-08-20T01:39:25;23.80;99.90
33093;DHT22;19456;46.104;12.908;2023-08-20T01:41:51;23.80;99.90
33093;DHT22;19456;46.104;12.908;2023-08-20T01:44:16;23.80;99.90
33093;DHT22;19456;46.104;12.908;2023-08-20T01:46:42;23.90;99.90
33093;DHT22;19456;46.104;12.908;2023-08-20T01:49:08;23.70;99.90
33093;DHT22;19456;46.104;12.908;2023-08-20T01:51:33;23.60;99.90
33093;DHT22;19456;46.104;12.908;2023-08-20T01:53:59;23.60;99.90
33093;DHT22;19456;46.104;12.908;2023-08-20T01:56:24;23.60;99.90
33093;DHT22;19456;46.104;12.908;2023-08-20T01:58:50;23.60;99.90
33093;DHT22;19456;46.104;12.908;2023-08-20T02:01:15;23.60;99.90
33093;DHT22;19456;46.104;12.908;2023-08-20T02:03:41;23.70;99.90
33093;DHT22;19456;46.104;12.908;2023-08-20T02:06:06;23.60;99.90
33093;DHT22;19456;46.104;12.908;2023-08-20T02:08:32;23.60;99.90
33093;DHT22;19456;46.104;12.908;2023-08-20T02:11:01;23.60;99.90
33093;DHT22;19456;46.104;12.908;2023-08-20T02:13:27;23.70;99.90
33093;DHT22;19456;46.104;12.908;2023-08-20T02:16:03;23.70;99.90
33093;DHT22;19456;46.104;12.908;2023-08-20T02:18:29;23.70;99.90
33093;DHT22;19456;46.104;12.908;2023-08-20T02:20:55;23.60;99.90
33093;DHT22;19456;46.104;12.908;2023-08-20T02:23:21;23.40;99.90
33093;DHT22;19456;46.104;12.908;2023-08-20T02:25:46;23.20;99.90
33093;DHT22;19456;46.104;12.908;2023-08-20T02:28:12;23.10;99.90
33093;DHT22;19456;46.104;12.908;2023-08-20T02:30:44;23.10;99.90
33093;DHT22;19456;46.104;12.908;2023-08-20T02:33:10;23.10;99.90
33093;DHT22;19456;46.104;12.908;2023-08-20T02:35:36;23.20;99.90
33093;DHT22;19456;46.104;12.908;2023-08-20T02:38:02;23.20;99.90
33093;DHT22;19456;46.104;12.908;2023-08-20T02:40:28;23.20;99.90
33093;DHT22;19456;46.104;12.908;2023-08-20T02:42:53;23.20;99.90
33093;DHT22;19456;46.104;12.908;2023-08-20T02:45:19;23.20;99.90
33093;DHT22;19456;46.104;12.908;2023-08-20T02:47:44;23.20;99.90
33093;DHT22;19456;46.104;12.908;2023-08-20T02:50:10;23.10;99.90
33093;DHT22;19456;46.104;12.908;2023-08-20T02:52:35;23.00;99.90
33093;DHT22;19456;46.104;12.908;2023-08-20T02:55:01;22.90;99.90
33093;DHT22;19456;46.104;12.908;2023-08-20T02:57:28;23.00;99.90
33093;DHT22;19456;46.104;12.908;2023-08-20T02:59:54;23.00;99.90
33093;DHT22;19456;46.104;12.908;2023-08-20T03:02:19;23.00;99.90
33093;DHT22;19456;46.104;12.908;2023-08-20T03:04:45;23.00;99.90
33093;DHT22;19456;46.104;12.908;2023-08-20T03:07:10;23.00;99.90
33093;DHT22;19456;46.104;12.908;2023-08-20T03:09:36;23.00;99.90
33093;DHT22;19456;46.104;12.908;2023-08-20T03:12:01;22.90;99.90
33093;DHT22;19456;46.104;12.908;2023-08-20T03:14:27;22.80;99.90
33093;DHT22;19456;46.104;12.908;2023-08-20T03:16:53;22.80;99.90
33093;DHT22;19456;46.104;12.908;2023-08-20T03:19:18;22.80;99.90
33093;DHT22;19456;46.104;12.908;2023-08-20T03:21:44;22.80;99.90
33093;DHT22;19456;46.104;12.908;2023-08-20T03:24:09;22.80;99.90
33093;DHT22;19456;46.104;12.908;2023-08-20T03:26:35;22.70;99.90
33093;DHT22;19456;46.104;12.908;2023-08-20T03:29:00;22.80;99.90
33093;DHT22;19456;46.104;12.908;2023-08-20T03:31:26;22.70;99.90
33093;DHT22;19456;46.104;12.908;2023-08-20T03:33:51;22.70;99.90
33093;DHT22;19456;46.104;12.908;2023-08-20T03:36:17;22.70;99.90
33093;DHT22;19456;46.104;12.908;2023-08-20T03:38:42;22.70;99.90
33093;DHT22;19456;46.104;12.908;2023-08-20T03:41:08;22.70;99.90
33093;DHT22;19456;46.104;12.908;2023-08-20T03:43:33;22.60;99.90
33093;DHT22;19456;46.104;12.908;2023-08-20T03:45:59;22.70;99.90
33093;DHT22;19456;46.104;12.908;2023-08-20T03:48:24;22.70;99.90
33093;DHT22;19456;46.104;12.908;2023-08-20T03:50:50;22.70;99.90
33093;DHT22;19456;46.104;12.908;2023-08-20T03:53:16;22.70;99.90
33093;DHT22;19456;46.104;12.908;2023-08-20T03:55:41;22.80;99.90
33093;DHT22;19456;46.104;12.908;2023-08-20T03:58:07;22.80;99.90
33093;DHT22;19456;46.104;12.908;2023-08-20T04:00:34;22.70;99.90
33093;DHT22;19456;46.104;12.908;2023-08-20T04:02:59;22.70;99.90
33093;DHT22;19456;46.104;12.908;2023-08-20T04:05:25;22.60;99.90
33093;DHT22;19456;46.104;12.908;2023-08-20T04:07:50;22.50;99.90
33093;DHT22;19456;46.104;12.908;2023-08-20T04:10:16;22.50;99.90
33093;DHT22;19456;46.104;12.908;2023-08-20T04:12:42;22.50;99.90
33093;DHT22;19456;46.104;12.908;2023-08-20T04:15:07;22.40;99.90
33093;DHT22;19456;46.104;12.908;2023-08-20T04:17:33;22.40;99.90
33093;DHT22;19456;46.104;12.908;2023-08-20T04:19:58;22.40;99.90
33093;DHT22;19456;46.104;12.908;2023-08-20T04:22:24;22.40;99.90
33093;DHT22;19456;46.104;12.908;2023-08-20T04:24:50;22.40;99.90
33093;DHT22;19456;46.104;12.908;2023-08-20T04:27:16;22.60;99.90
33093;DHT22;19456;46.104;12.908;2023-08-20T04:29:41;22.60;99.90
33093;DHT22;19456;46.104;12.908;2023-08-20T04:32:07;22.50;99.90
33093;DHT22;19456;46.104;12.908;2023-08-20T04:34:32;22.50;99.90
33093;DHT22;19456;46.104;12.908;2023-08-20T04:36:58;22.50;99.90
33093;DHT22;19456;46.104;12.908;2023-08-20T04:39:24;22.50;99.90
33093;DHT22;19456;46.104;12.908;2023-08-20T04:41:49;22.50;99.90
33093;DHT22;19456;46.104;12.908;2023-08-20T04:44:15;22.50;99.90
33093;DHT22;19456;46.104;12.908;2023-08-20T04:46:41;22.50;99.90
33093;DHT22;19456;46.104;12.908;2023-08-20T04:49:07;22.50;99.90
33093;DHT22;19456;46.104;12.908;2023-08-20T04:51:33;22.50;99.90
33093;DHT22;19456;46.104;12.908;2023-08-20T04:53:59;22.50;99.90
33093;DHT22;19456;46.104;12.908;2023-08-20T04:56:24;22.50;99.90
33093;DHT22;19456;46.104;12.908;2023-08-20T04:58:50;22.50;99.90
33093;DHT22;19456;46.104;12.908;2023-08-20T05:01:15;22.50;99.90
33093;DHT22;19456;46.104;12.908;2023-08-20T05:03:41;22.50;99.90
33093;DHT22;19456;46.104;12.908;2023-08-20T05:06:07;22.60;99.90
33093;DHT22;19456;46.104;12.908;2023-08-20T05:08:32;22.70;99.90
33093;DHT22;19456;46.104;12.908;2023-08-20T05:10:58;22.80;99.90
33093;DHT22;19456;46.104;12.908;2023-08-20T05:13:23;22.80;99.90
33093;DHT22;19456;46.104;12.908;2023-08-20T05:15:49;22.80;99.90
33093;DHT22;19456;46.104;12.908;2023-08-20T05:18:15;22.90;99.90
33093;DHT22;19456;46.104;12.908;2023-08-20T05:20:40;23.00;99.90
33093;DHT22;19456;46.104;12.908;2023-08-20T05:23:06;22.90;99.90
33093;DHT22;19456;46.104;12.908;2023-08-20T05:25:32;23.00;99.90
33093;DHT22;19456;46.104;12.908;2023-08-20T05:27:58;23.20;99.90
33093;DHT22;19456;46.104;12.908;2023-08-20T05:30:25;23.30;99.90
33093;DHT22;19456;46.104;12.908;2023-08-20T05:32:51;23.40;99.90
33093;DHT22;19456;46.104;12.908;2023-08-20T05:35:16;23.40;99.90
33093;DHT22;19456;46.104;12.908;2023-08-20T05:37:42;23.40;99.90
33093;DHT22;19456;46.104;12.908;2023-08-20T05:40:08;23.50;99.90
33093;DHT22;19456;46.104;12.908;2023-08-20T05:42:34;23.60;99.90
33093;DHT22;19456;46.104;12.908;2023-08-20T05:44:59;23.80;99.90
33093;DHT22;19456;46.104;12.908;2023-08-20T05:47:25;24.00;99.90
33093;DHT22;19456;46.104;12.908;2023-08-20T05:49:51;24.10;99.90
33093;DHT22;19456;46.104;12.908;2023-08-20T05:52:16;24.30;99.90
33093;DHT22;19456;46.104;12.908;2023-08-20T05:54:42;24.40;99.90
33093;DHT22;19456;46.104;12.908;2023-08-20T05:57:07;24.50;99.90
33093;DHT22;19456;46.104;12.908;2023-08-20T05:59:33;24.60;99.90
33093;DHT22;19456;46.104;12.908;2023-08-20T06:02:00;24.60;99.90
33093;DHT22;19456;46.104;12.908;2023-08-20T06:04:26;24.70;99.90
33093;DHT22;19456;46.104;12.908;2023-08-20T06:06:51;24.80;99.90
33093;DHT22;19456;46.104;12.908;2023-08-20T06:09:17;24.90;99.90
33093;DHT22;19456;46.104;12.908;2023-08-20T06:11:42;25.00;99.90
33093;DHT22;19456;46.104;12.908;2023-08-20T06:14:08;25.10;99.90
33093;DHT22;19456;46.104;12.908;2023-08-20T06:16:34;25.20;99.90
33093;DHT22;19456;46.104;12.908;2023-08-20T06:18:59;25.20;99.90
33093;DHT22;19456;46.104;12.908;2023-08-20T06:21:25;25.30;99.90
33093;DHT22;19456;46.104;12.908;2023-08-20T06:23:51;25.50;99.90
33093;DHT22;19456;46.104;12.908;2023-08-20T06:26:17;25.60;99.90
33093;DHT22;19456;46.104;12.908;2023-08-20T06:28:42;25.60;99.90
33093;DHT22;19456;46.104;12.908;2023-08-20T06:31:08;25.70;99.90
33093;DHT22;19456;46.104;12.908;2023-08-20T06:33:34;25.70;99.90
33093;DHT22;19456;46.104;12.908;2023-08-20T06:35:59;25.80;99.90
33093;DHT22;19456;46.104;12.908;2023-08-20T06:38:25;25.80;99.90
33093;DHT22;19456;46.104;12.908;2023-08-20T06:40:50;25.90;99.90
33093;DHT22;19456;46.104;12.908;2023-08-20T06:43:16;25.90;99.90
33093;DHT22;19456;46.104;12.908;2023-08-20T06:45:42;26.00;99.90
33093;DHT22;19456;46.104;12.908;2023-08-20T06:48:07;26.10;99.90
33093;DHT22;19456;46.104;12.908;2023-08-20T06:50:33;26.20;99.90
33093;DHT22;19456;46.104;12.908;2023-08-20T06:52:58;26.30;99.90
33093;DHT22;19456;46.104;12.908;2023-08-20T06:55:24;26.40;99.90
33093;DHT22;19456;46.104;12.908;2023-08-20T06:57:49;26.50;99.90
33093;DHT22;19456;46.104;12.908;2023-08-20T07:00:15;26.60;99.90
33093;DHT22;19456;46.104;12.908;2023-08-20T07:02:41;26.70;99.90
33093;DHT22;19456;46.104;12.908;2023-08-20T07:05:07;26.80;99.90
33093;DHT22;19456;46.104;12.908;2023-08-20T07:07:34;26.90;99.90
33093;DHT22;19456;46.104;12.908;2023-08-20T07:10:00;26.90;99.90
33093;DHT22;19456;46.104;12.908;2023-08-20T07:12:26;27.00;99.90
33093;DHT22;19456;46.104;12.908;2023-08-20T07:14:51;27.10;99.90
33093;DHT22;19456;46.104;12.908;2023-08-20T07:17:17;27.20;99.90
33093;DHT22;19456;46.104;12.908;2023-08-20T07:19:42;27.30;99.90
33093;DHT22;19456;46.104;12.908;2023-08-20T07:22:08;27.40;99.90
33093;DHT22;19456;46.104;12.908;2023-08-20T07:24:33;27.50;99.90
33093;DHT22;19456;46.104;12.908;2023-08-20T07:27:01;27.50;99.90
33093;DHT22;19456;46.104;12.908;2023-08-20T07:29:27;27.60;99.90
33093;DHT22;19456;46.104;12.908;2023-08-20T07:31:55;27.70;99.90
33093;DHT22;19456;46.104;12.908;2023-08-20T07:34:21;27.70;99.90
33093;DHT22;19456;46.104;12.908;2023-08-20T07:36:47;27.80;99.90
33093;DHT22;19456;46.104;12.908;2023-08-20T07:39:12;27.90;99.90
33093;DHT22;19456;46.104;12.908;2023-08-20T07:41:38;28.00;99.90
33093;DHT22;19456;46.104;12.908;2023-08-20T07:44:03;28.00;99.90
33093;DHT22;19456;46.104;12.908;2023-08-20T07:46:29;28.10;99.90
33093;DHT22;19456;46.104;12.908;2023-08-20T07:48:55;28.20;99.90
33093;DHT22;19456;46.104;12.908;2023-08-20T07:51:20;28.20;99.90
33093;DHT22;19456;46.104;12.908;2023-08-20T07:53:46;28.10;99.90
33093;DHT22;19456;46.104;12.908;2023-08-20T07:56:11;28.20;99.90
33093;DHT22;19456;46.104;12.908;2023-08-20T07:58:39;28.30;99.90
33093;DHT22;19456;46.104;12.908;2023-08-20T08:01:05;28.40;99.90
33093;DHT22;19456;46.104;12.908;2023-08-20T08:03:30;28.40;99.90
33093;DHT22;19456;46.104;12.908;2023-08-20T08:05:56;28.50;99.90
33093;DHT22;19456;46.104;12.908;2023-08-20T08:08:22;28.60;99.90
33093;DHT22;19456;46.104;12.908;2023-08-20T08:10:47;28.60;99.90
33093;DHT22;19456;46.104;12.908;2023-08-20T08:13:14;28.70;99.90
33093;DHT22;19456;46.104;12.908;2023-08-20T08:15:40;28.70;99.90
33093;DHT22;19456;46.104;12.908;2023-08-20T08:18:06;28.70;99.90
33093;DHT22;19456;46.104;12.908;2023-08-20T08:20:32;28.80;99.90
33093;DHT22;19456;46.104;12.908;2023-08-20T08:22:57;28.90;99.90
33093;DHT22;19456;46.104;12.908;2023-08-20T08:25:23;28.90;99.90
33093;DHT22;19456;46.104;12.908;2023-08-20T08:27:48;29.00;99.90
33093;DHT22;19456;46.104;12.908;2023-08-20T08:30:14;29.10;99.90
33093;DHT22;19456;46.104;12.908;2023-08-20T08:32:40;29.10;99.90
33093;DHT22;19456;46.104;12.908;2023-08-20T08:35:05;29.20;99.90
33093;DHT22;19456;46.104;12.908;2023-08-20T08:37:31;29.20;99.90
33093;DHT22;19456;46.104;12.908;2023-08-20T08:39:57;29.20;99.90
33093;DHT22;19456;46.104;12.908;2023-08-20T08:42:22;29.20;99.90
33093;DHT22;19456;46.104;12.908;2023-08-20T08:44:52;29.20;99.90
33093;DHT22;19456;46.104;12.908;2023-08-20T08:47:21;29.30;99.90
33093;DHT22;19456;46.104;12.908;2023-08-20T08:49:47;29.40;99.90
33093;DHT22;19456;46.104;12.908;2023-08-20T08:52:13;29.40;99.90
33093;DHT22;19456;46.104;12.908;2023-08-20T08:54:39;29.50;99.90
33093;DHT22;19456;46.104;12.908;2023-08-20T08:57:05;29.50;99.90
33093;DHT22;19456;46.104;12.908;2023-08-20T08:59:30;29.60;99.90
33093;DHT22;19456;46.104;12.908;2023-08-20T09:01:56;29.60;99.90
33093;DHT22;19456;46.104;12.908;2023-08-20T09:04:22;29.60;99.90
33093;DHT22;19456;46.104;12.908;2023-08-20T09:06:48;29.60;99.90
33093;DHT22;19456;46.104;12.908;2023-08-20T09:09:14;29.70;99.90
33093;DHT22;19456;46.104;12.908;2023-08-20T09:11:40;29.80;99.90
33093;DHT22;19456;46.104;12.908;2023-08-20T09:14:05;29.80;99.90
33093;DHT22;19456;46.104;12.908;2023-08-20T09:16:31;29.90;99.90
33093;DHT22;19456;46.104;12.908;2023-08-20T09:19:00;30.00;99.90
33093;DHT22;19456;46.104;12.908;2023-08-20T09:21:29;30.10;99.90
33093;DHT22;19456;46.104;12.908;2023-08-20T09:23:55;30.10;99.90
33093;DHT22;19456;46.104;12.908;2023-08-20T09:26:22;30.10;99.90
33093;DHT22;19456;46.104;12.908;2023-08-20T09:28:47;30.20;99.90
33093;DHT22;19456;46.104;12.908;2023-08-20T09:31:13;30.20;99.90
33093;DHT22;19456;46.104;12.908;2023-08-20T09:34:00;30.30;99.90
33093;DHT22;19456;46.104;12.908;2023-08-20T09:36:32;30.30;99.90
33093;DHT22;19456;46.104;12.908;2023-08-20T09:38:58;30.30;99.90
33093;DHT22;19456;46.104;12.908;2023-08-20T09:41:23;30.30;99.90
33093;DHT22;19456;46.104;12.908;2023-08-20T09:43:51;30.40;99.90
33093;DHT22;19456;46.104;12.908;2023-08-20T09:46:19;30.50;99.90
33093;DHT22;19456;46.104;12.908;2023-08-20T09:48:45;30.60;99.90
33093;DHT22;19456;46.104;12.908;2023-08-20T09:51:13;30.70;99.90
33093;DHT22;19456;46.104;12.908;2023-08-20T09:53:44;30.70;99.90
33093;DHT22;19456;46.104;12.908;2023-08-20T09:56:29;30.80;99.90
33093;DHT22;19456;46.104;12.908;2023-08-20T09:58:57;30.90;99.90
33093;DHT22;19456;46.104;12.908;2023-08-20T10:01:23;30.90;99.90
33093;DHT22;19456;46.104;12.908;2023-08-20T10:03:48;30.90;99.90
33093;DHT22;19456;46.104;12.908;2023-08-20T10:06:14;30.90;99.90
33093;DHT22;19456;46.104;12.908;2023-08-20T10:08:40;30.90;99.90
33093;DHT22;19456;46.104;12.908;2023-08-20T10:11:06;30.90;99.90
33093;DHT22;19456;46.104;12.908;2023-08-20T10:13:31;30.80;99.90
33093;DHT22;19456;46.104;12.908;2023-08-20T10:15:57;30.90;99.90
33093;DHT22;19456;46.104;12.908;2023-08-20T10:18:23;31.00;99.90
33093;DHT22;19456;46.104;12.908;2023-08-20T10:20:52;31.10;99.90
33093;DHT22;19456;46.104;12.908;2023-08-20T10:23:21;31.20;99.90
33093;DHT22;19456;46.104;12.908;2023-08-20T10:25:50;31.30;99.90
33093;DHT22;19456;46.104;12.908;2023-08-20T10:28:20;31.50;99.90
33093;DHT22;19456;46.104;12.908;2023-08-20T10:33:33;31.40;99.90
33093;DHT22;19456;46.104;12.908;2023-08-20T10:36:06;31.40;99.90
33093;DHT22;19456;46.104;12.908;2023-08-20T10:38:35;31.60;99.90
33093;DHT22;19456;46.104;12.908;2023-08-20T10:41:00;31.90;99.90
33093;DHT22;19456;46.104;12.908;2023-08-20T10:43:33;31.90;99.90
33093;DHT22;19456;46.104;12.908;2023-08-20T10:46:02;32.20;99.90
33093;DHT22;19456;46.104;12.908;2023-08-20T10:48:29;32.30;99.90
33093;DHT22;19456;46.104;12.908;2023-08-20T10:50:54;32.50;99.90
33093;DHT22;19456;46.104;12.908;2023-08-20T10:53:21;32.60;99.90
33093;DHT22;19456;46.104;12.908;2023-08-20T10:55:50;32.60;99.90
33093;DHT22;19456;46.104;12.908;2023-08-20T10:58:17;32.60;99.90
33093;DHT22;19456;46.104;12.908;2023-08-20T11:00:42;32.60;99.90
33093;DHT22;19456;46.104;12.908;2023-08-20T11:03:08;32.70;99.90
33093;DHT22;19456;46.104;12.908;2023-08-20T11:05:34;32.90;99.90
33093;DHT22;19456;46.104;12.908;2023-08-20T11:07:59;33.00;99.90
33093;DHT22;19456;46.104;12.908;2023-08-20T11:10:25;33.30;99.90
33093;DHT22;19456;46.104;12.908;2023-08-20T11:12:51;33.50;99.90
33093;DHT22;19456;46.104;12.908;2023-08-20T11:15:17;33.80;99.90
33093;DHT22;19456;46.104;12.908;2023-08-20T11:17:43;33.90;99.90
33093;DHT22;19456;46.104;12.908;2023-08-20T11:20:10;34.00;99.90
33093;DHT22;19456;46.104;12.908;2023-08-20T11:22:39;34.10;99.90
33093;DHT22;19456;46.104;12.908;2023-08-20T11:25:05;34.30;99.90
33093;DHT22;19456;46.104;12.908;2023-08-20T11:27:31;34.40;99.90
33093;DHT22;19456;46.104;12.908;2023-08-20T11:29:57;34.40;99.90
33093;DHT22;19456;46.104;12.908;2023-08-20T11:32:23;35.00;99.90
33093;DHT22;19456;46.104;12.908;2023-08-20T11:34:49;35.50;99.90
33093;DHT22;19456;46.104;12.908;2023-08-20T11:37:17;36.10;99.90
33093;DHT22;19456;46.104;12.908;2023-08-20T11:39:43;36.80;99.90
33093;DHT22;19456;46.104;12.908;2023-08-20T11:42:10;37.20;99.70
33093;DHT22;19456;46.104;12.908;2023-08-20T11:44:48;37.40;98.40
33093;DHT22;19456;46.104;12.908;2023-08-20T11:47:16;37.80;97.30
33093;DHT22;19456;46.104;12.908;2023-08-20T11:49:42;37.50;94.80
33093;DHT22;19456;46.104;12.908;2023-08-20T11:52:08;37.60;95.70
33093;DHT22;19456;46.104;12.908;2023-08-20T11:54:35;37.60;95.60
33093;DHT22;19456;46.104;12.908;2023-08-20T11:57:02;37.60;96.00
33093;DHT22;19456;46.104;12.908;2023-08-20T11:59:28;38.10;94.40
33093;DHT22;19456;46.104;12.908;2023-08-20T12:01:57;38.00;93.00
33093;DHT22;19456;46.104;12.908;2023-08-20T12:04:29;38.10;94.60
33093;DHT22;19456;46.104;12.908;2023-08-20T12:07:05;37.80;95.80
33093;DHT22;19456;46.104;12.908;2023-08-20T12:09:31;37.40;96.10
33093;DHT22;19456;46.104;12.908;2023-08-20T12:11:57;37.50;96.60
33093;DHT22;19456;46.104;12.908;2023-08-20T12:14:24;37.60;96.00
33093;DHT22;19456;46.104;12.908;2023-08-20T12:16:49;38.00;94.70
33093;DHT22;19456;46.104;12.908;2023-08-20T12:19:18;38.20;94.40
33093;DHT22;19456;46.104;12.908;2023-08-20T12:21:44;38.80;93.40
33093;DHT22;19456;46.104;12.908;2023-08-20T12:24:10;38.70;92.20
33093;DHT22;19456;46.104;12.908;2023-08-20T12:26:36;39.00;90.70
33093;DHT22;19456;46.104;12.908;2023-08-20T12:29:02;39.10;91.40
33093;DHT22;19456;46.104;12.908;2023-08-20T12:31:27;39.30;91.00
33093;DHT22;19456;46.104;12.908;2023-08-20T12:33:53;39.60;90.30
33093;DHT22;19456;46.104;12.908;2023-08-20T12:36:18;39.30;91.20
33093;DHT22;19456;46.104;12.908;2023-08-20T12:38:44;39.30;89.90
33093;DHT22;19456;46.104;12.908;2023-08-20T12:41:10;39.70;89.80
33093;DHT22;19456;46.104;12.908;2023-08-20T12:43:35;39.40;90.40
33093;DHT22;19456;46.104;12.908;2023-08-20T12:46:01;39.70;89.20
33093;DHT22;19456;46.104;12.908;2023-08-20T12:48:26;38.20;91.10
33093;DHT22;19456;46.104;12.908;2023-08-20T12:50:52;38.00;91.90
33093;DHT22;19456;46.104;12.908;2023-08-20T12:53:18;38.50;90.90
33093;DHT22;19456;46.104;12.908;2023-08-20T12:55:44;38.70;90.60
33093;DHT22;19456;46.104;12.908;2023-08-20T12:58:09;39.20;90.10
33093;DHT22;19456;46.104;12.908;2023-08-20T13:00:35;39.60;88.70
33093;DHT22;19456;46.104;12.908;2023-08-20T13:03:01;39.80;87.60
33093;DHT22;19456;46.104;12.908;2023-08-20T13:05:26;40.10;85.80
33093;DHT22;19456;46.104;12.908;2023-08-20T13:07:52;40.30;86.60
33093;DHT22;19456;46.104;12.908;2023-08-20T13:10:18;40.50;85.30
33093;DHT22;19456;46.104;12.908;2023-08-20T13:12:48;40.60;84.40
33093;DHT22;19456;46.104;12.908;2023-08-20T13:15:17;40.90;83.40
33093;DHT22;19456;46.104;12.908;2023-08-20T13:17:45;40.40;84.80
33093;DHT22;19456;46.104;12.908;2023-08-20T13:20:10;40.20;84.90
33093;DHT22;19456;46.104;12.908;2023-08-20T13:22:36;40.30;84.70
33093;DHT22;19456;46.104;12.908;2023-08-20T13:25:02;40.70;84.30
33093;DHT22;19456;46.104;12.908;2023-08-20T13:27:29;41.00;82.20
33093;DHT22;19456;46.104;12.908;2023-08-20T13:29:55;41.10;82.20
33093;DHT22;19456;46.104;12.908;2023-08-20T13:32:21;41.90;80.70
33093;DHT22;19456;46.104;12.908;2023-08-20T13:34:46;42.10;79.90
33093;DHT22;19456;46.104;12.908;2023-08-20T13:37:12;42.20;78.70
33093;DHT22;19456;46.104;12.908;2023-08-20T13:39:38;41.30;77.10
33093;DHT22;19456;46.104;12.908;2023-08-20T13:42:03;41.30;77.80
33093;DHT22;19456;46.104;12.908;2023-08-20T13:44:29;40.60;79.10
33093;DHT22;19456;46.104;12.908;2023-08-20T13:46:54;41.50;78.60
33093;DHT22;19456;46.104;12.908;2023-08-20T13:49:20;41.60;77.80
33093;DHT22;19456;46.104;12.908;2023-08-20T13:51:46;41.30;78.80
33093;DHT22;19456;46.104;12.908;2023-08-20T13:54:11;42.10;77.20
33093;DHT22;19456;46.104;12.908;2023-08-20T13:56:37;42.20;74.40
33093;DHT22;19456;46.104;12.908;2023-08-20T13:59:02;42.80;73.10
33093;DHT22;19456;46.104;12.908;2023-08-20T14:01:28;42.00;74.20
33093;DHT22;19456;46.104;12.908;2023-08-20T14:03:54;42.60;73.10
33093;DHT22;19456;46.104;12.908;2023-08-20T14:06:19;42.80;71.20
33093;DHT22;19456;46.104;12.908;2023-08-20T14:08:45;43.20;71.40
33093;DHT22;19456;46.104;12.908;2023-08-20T14:11:10;43.80;67.40
33093;DHT22;19456;46.104;12.908;2023-08-20T14:13:36;44.00;66.50
33093;DHT22;19456;46.104;12.908;2023-08-20T14:16:02;44.30;65.70
33093;DHT22;19456;46.104;12.908;2023-08-20T14:18:27;44.50;62.90
33093;DHT22;19456;46.104;12.908;2023-08-20T14:20:53;44.20;62.90
33093;DHT22;19456;46.104;12.908;2023-08-20T14:23:19;43.50;61.30
33093;DHT22;19456;46.104;12.908;2023-08-20T14:25:44;42.50;63.30
33093;DHT22;19456;46.104;12.908;2023-08-20T14:28:10;42.20;66.10
33093;DHT22;19456;46.104;12.908;2023-08-20T14:30:36;43.10;64.80
33093;DHT22;19456;46.104;12.908;2023-08-20T14:33:02;43.50;62.80
33093;DHT22;19456;46.104;12.908;2023-08-20T14:35:28;42.40;62.80
33093;DHT22;19456;46.104;12.908;2023-08-20T14:37:53;42.30;62.80
33093;DHT22;19456;46.104;12.908;2023-08-20T14:40:19;41.90;65.40
33093;DHT22;19456;46.104;12.908;2023-08-20T14:42:45;41.90;66.30
33093;DHT22;19456;46.104;12.908;2023-08-20T14:45:10;42.00;63.70
33093;DHT22;19456;46.104;12.908;2023-08-20T14:47:36;41.80;67.20
33093;DHT22;19456;46.104;12.908;2023-08-20T14:50:01;41.70;68.70
33093;DHT22;19456;46.104;12.908;2023-08-20T14:52:27;42.10;69.10
33093;DHT22;19456;46.104;12.908;2023-08-20T14:54:53;41.90;67.30
33093;DHT22;19456;46.104;12.908;2023-08-20T14:57:18;42.10;64.10
33093;DHT22;19456;46.104;12.908;2023-08-20T14:59:44;41.90;65.80
33093;DHT22;19456;46.104;12.908;2023-08-20T15:02:10;42.00;65.90
33093;DHT22;19456;46.104;12.908;2023-08-20T15:04:35;41.70;64.00
33093;DHT22;19456;46.104;12.908;2023-08-20T15:07:01;41.70;66.40
33093;DHT22;19456;46.104;12.908;2023-08-20T15:09:26;42.00;65.40
33093;DHT22;19456;46.104;12.908;2023-08-20T15:11:52;42.20;63.50
33093;DHT22;19456;46.104;12.908;2023-08-20T15:14:17;41.00;64.70